createdAt,value
2018-07-04T00:00:30.229Z,0
2018-07-04T00:01:30.959Z,0
2018-07-04T00:02:31.638Z,0
2018-07-04T00:03:32.317Z,0
2018-07-04T00:04:32.996Z,0
2018-07-04T00:05:33.677Z,0
2018-07-04T00:06:34.415Z,0
2018-07-04T00:07:35.134Z,0
2018-07-04T00:08:35.812Z,0
2018-07-04T00:09:36.543Z,0
2018-07-04T00:10:37.221Z,0
2018-07-04T00:11:37.899Z,0
2018-07-04T00:12:38.578Z,0
2018-07-04T00:13:39.257Z,0
2018-07-04T00:14:39.935Z,0
2018-07-04T00:15:40.616Z,0
2018-07-04T00:16:41.293Z,0
2018-07-04T00:17:42.023Z,0
2018-07-04T00:18:42.754Z,0
2018-07-04T00:19:43.436Z,0
2018-07-04T00:20:44.109Z,0
2018-07-04T00:21:44.794Z,0
2018-07-04T00:22:45.468Z,0
2018-07-04T00:23:46.205Z,0
2018-07-04T00:24:46.928Z,0
2018-07-04T00:25:47.656Z,0
2018-07-04T00:26:48.286Z,0
2018-07-04T00:27:49.015Z,0
2018-07-04T00:28:49.693Z,0
2018-07-04T00:29:50.375Z,0
2018-07-04T00:30:51.054Z,0
2018-07-04T00:31:51.731Z,0
2018-07-04T00:32:52.473Z,0
2018-07-04T00:33:53.141Z,0
2018-07-04T00:34:53.820Z,0
2018-07-04T00:35:54.499Z,0
2018-07-04T00:36:55.228Z,0
2018-07-04T00:37:55.905Z,0
2018-07-04T00:38:56.589Z,0
2018-07-04T00:39:57.314Z,0
2018-07-04T00:40:57.990Z,0
2018-07-04T00:41:58.670Z,0
2018-07-04T00:42:59.349Z,0
2018-07-04T00:44:00.090Z,0
2018-07-04T00:45:00.707Z,0
2018-07-04T00:46:01.438Z,0
2018-07-04T00:47:02.115Z,0
2018-07-04T00:48:02.843Z,0
2018-07-04T00:49:03.520Z,0
2018-07-04T00:50:04.201Z,0
2018-07-04T00:51:04.878Z,0
2018-07-04T00:52:05.557Z,0
2018-07-04T00:53:06.286Z,0
2018-07-04T00:54:06.963Z,0
2018-07-04T00:55:07.646Z,0
2018-07-04T00:56:08.372Z,0
2018-07-04T00:57:09.048Z,0
2018-07-04T00:58:09.726Z,0
2018-07-04T00:59:10.404Z,0
2018-07-04T01:00:11.083Z,0
2018-07-04T01:01:11.762Z,0
2018-07-04T01:02:12.489Z,0
2018-07-04T01:03:13.216Z,0
2018-07-04T01:04:13.898Z,0
2018-07-04T01:05:14.575Z,0
2018-07-04T01:06:15.253Z,0
2018-07-04T01:07:15.931Z,0
2018-07-04T01:08:16.610Z,0
2018-07-04T01:09:17.290Z,0
2018-07-04T01:10:17.968Z,0
2018-07-04T01:11:18.645Z,0
2018-07-04T01:12:19.371Z,0
2018-07-04T01:13:20.050Z,0
2018-07-04T01:14:20.731Z,0
2018-07-04T01:15:21.456Z,0
2018-07-04T01:16:22.135Z,0
2018-07-04T01:17:22.866Z,0
2018-07-04T01:18:23.543Z,0
2018-07-04T01:19:24.272Z,0
2018-07-04T01:20:24.949Z,0
2018-07-04T01:21:25.626Z,0
2018-07-04T01:22:26.354Z,0
2018-07-04T01:23:27.032Z,0
2018-07-04T01:24:27.761Z,0
2018-07-04T01:25:28.487Z,0
2018-07-04T01:26:29.166Z,0
2018-07-04T01:27:29.843Z,0
2018-07-04T01:28:30.524Z,0
2018-07-04T01:29:31.250Z,0
2018-07-04T01:30:31.978Z,0
2018-07-04T01:31:32.657Z,0
2018-07-04T01:32:33.337Z,0
2018-07-04T01:33:34.014Z,0
2018-07-04T01:34:34.694Z,0
2018-07-04T01:35:35.423Z,0
2018-07-04T01:36:36.101Z,0
2018-07-04T01:37:36.780Z,0
2018-07-04T01:38:37.457Z,0
2018-07-04T01:39:38.136Z,0
2018-07-04T01:40:38.815Z,0
2018-07-04T01:41:39.495Z,0
2018-07-04T01:42:40.171Z,0
2018-07-04T01:43:40.901Z,0
2018-07-04T01:44:41.580Z,0
2018-07-04T01:45:42.256Z,0
2018-07-04T01:46:42.937Z,0
2018-07-04T01:47:43.665Z,0
2018-07-04T01:48:44.345Z,0
2018-07-04T01:49:45.022Z,0
2018-07-04T01:50:45.713Z,0
2018-07-04T01:51:46.427Z,0
2018-07-04T01:52:47.105Z,0
2018-07-04T01:53:47.783Z,0
2018-07-04T01:54:48.461Z,0
2018-07-04T01:55:49.191Z,0
2018-07-04T01:56:49.868Z,0
2018-07-04T01:57:50.550Z,0
2018-07-04T01:58:51.275Z,0
2018-07-04T01:59:51.953Z,0
2018-07-04T02:00:52.633Z,0
2018-07-04T02:01:53.312Z,0
2018-07-04T02:02:53.990Z,0
2018-07-04T02:03:54.717Z,0
2018-07-04T02:04:55.393Z,0
2018-07-04T02:05:56.072Z,0
2018-07-04T02:06:56.753Z,0
2018-07-04T02:07:57.430Z,0
2018-07-04T02:08:58.204Z,0
2018-07-04T02:09:58.884Z,0
2018-07-04T02:10:59.563Z,0
2018-07-04T02:12:00.244Z,0
2018-07-04T02:13:00.918Z,0
2018-07-04T02:14:01.646Z,0
2018-07-04T02:15:02.324Z,0
2018-07-04T02:16:03.053Z,0
2018-07-04T02:17:03.731Z,0
2018-07-04T02:18:04.410Z,0
2018-07-04T02:19:05.089Z,0
2018-07-04T02:20:05.866Z,0
2018-07-04T02:21:06.545Z,0
2018-07-04T02:22:07.224Z,0
2018-07-04T02:23:07.900Z,0
2018-07-04T02:24:08.579Z,0
2018-07-04T02:25:09.305Z,0
2018-07-04T02:26:09.981Z,0
2018-07-04T02:27:10.663Z,4
2018-07-04T02:28:11.391Z,4
2018-07-04T02:29:12.071Z,4
2018-07-04T02:30:12.751Z,0
2018-07-04T02:31:13.425Z,4
2018-07-04T02:32:14.152Z,4
2018-07-04T02:33:14.880Z,0
2018-07-04T02:34:15.558Z,4
2018-07-04T02:35:16.236Z,4
2018-07-04T02:36:16.912Z,4
2018-07-04T02:37:17.591Z,8
2018-07-04T02:38:18.370Z,8
2018-07-04T02:39:19.048Z,4
2018-07-04T02:40:19.726Z,8
2018-07-04T02:41:20.460Z,12
2018-07-04T02:42:21.135Z,12
2018-07-04T02:43:21.816Z,12
2018-07-04T02:44:22.492Z,12
2018-07-04T02:45:23.171Z,20
2018-07-04T02:46:23.901Z,20
2018-07-04T02:47:24.581Z,20
2018-07-04T02:48:25.265Z,24
2018-07-04T02:49:25.939Z,28
2018-07-04T02:50:26.618Z,32
2018-07-04T02:51:27.345Z,36
2018-07-04T02:52:28.025Z,36
2018-07-04T02:53:28.704Z,40
2018-07-04T02:54:29.382Z,48
2018-07-04T02:55:30.062Z,48
2018-07-04T02:56:30.794Z,52
2018-07-04T02:57:31.519Z,60
2018-07-04T02:58:32.197Z,64
2018-07-04T02:59:32.876Z,72
2018-07-04T03:00:33.557Z,80
2018-07-04T03:01:34.336Z,84
2018-07-04T03:02:35.018Z,96
2018-07-04T03:03:35.695Z,104
2018-07-04T03:04:36.374Z,112
2018-07-04T03:05:37.056Z,124
2018-07-04T03:06:37.833Z,132
2018-07-04T03:07:38.513Z,140
2018-07-04T03:08:39.192Z,152
2018-07-04T03:09:39.872Z,164
2018-07-04T03:10:40.555Z,176
2018-07-04T03:11:41.231Z,188
2018-07-04T03:12:41.911Z,200
2018-07-04T03:13:42.591Z,216
2018-07-04T03:14:43.317Z,228
2018-07-04T03:15:44.048Z,240
2018-07-04T03:16:44.729Z,256
2018-07-04T03:17:45.412Z,272
2018-07-04T03:18:46.091Z,288
2018-07-04T03:19:46.771Z,304
2018-07-04T03:20:47.504Z,316
2018-07-04T03:21:48.184Z,336
2018-07-04T03:22:48.867Z,352
2018-07-04T03:23:49.549Z,368
2018-07-04T03:24:50.229Z,384
2018-07-04T03:25:50.961Z,404
2018-07-04T03:26:51.640Z,420
2018-07-04T03:27:52.325Z,440
2018-07-04T03:28:53.009Z,456
2018-07-04T03:29:53.734Z,476
2018-07-04T03:30:54.414Z,496
2018-07-04T03:31:55.094Z,512
2018-07-04T03:32:55.793Z,532
2018-07-04T03:33:56.504Z,548
2018-07-04T03:34:57.235Z,568
2018-07-04T03:35:57.915Z,588
2018-07-04T03:36:58.596Z,608
2018-07-04T03:37:59.276Z,624
2018-07-04T03:38:59.956Z,644
2018-07-04T03:40:00.695Z,660
2018-07-04T03:41:01.420Z,680
2018-07-04T03:42:02.100Z,700
2018-07-04T03:43:02.782Z,724
2018-07-04T03:44:03.460Z,740
2018-07-04T03:45:04.193Z,760
2018-07-04T03:46:04.873Z,780
2018-07-04T03:47:05.556Z,800
2018-07-04T03:48:06.237Z,816
2018-07-04T03:49:06.967Z,832
2018-07-04T03:50:07.647Z,856
2018-07-04T03:51:08.327Z,872
2018-07-04T03:52:09.010Z,888
2018-07-04T03:53:09.692Z,904
2018-07-04T03:54:10.472Z,924
2018-07-04T03:55:11.153Z,944
2018-07-04T03:56:11.836Z,964
2018-07-04T03:57:12.515Z,980
2018-07-04T03:58:13.246Z,996
2018-07-04T03:59:13.927Z,1016
2018-07-04T04:00:14.609Z,1032
2018-07-04T04:01:15.342Z,1052
2018-07-04T04:02:16.024Z,1068
2018-07-04T04:03:16.708Z,1088
2018-07-04T04:04:17.390Z,1100
2018-07-04T04:05:18.072Z,1120
2018-07-04T04:06:18.803Z,1136
2018-07-04T04:07:19.531Z,1156
2018-07-04T04:08:20.168Z,1172
2018-07-04T04:09:20.849Z,1192
2018-07-04T04:10:21.533Z,1208
2018-07-04T04:11:22.218Z,1220
2018-07-04T04:12:22.947Z,1236
2018-07-04T04:13:23.631Z,1256
2018-07-04T04:14:24.311Z,1272
2018-07-04T04:15:24.994Z,1288
2018-07-04T04:16:25.676Z,1304
2018-07-04T04:17:26.359Z,1320
2018-07-04T04:18:27.041Z,1336
2018-07-04T04:19:27.774Z,1352
2018-07-04T04:20:28.457Z,1364
2018-07-04T04:21:29.139Z,1380
2018-07-04T04:22:29.821Z,1392
2018-07-04T04:23:30.504Z,1408
2018-07-04T04:24:31.238Z,1420
2018-07-04T04:25:31.920Z,1432
2018-07-04T04:26:32.613Z,1452
2018-07-04T04:27:33.286Z,1460
2018-07-04T04:28:33.969Z,1476
2018-07-04T04:29:34.701Z,1488
2018-07-04T04:30:35.381Z,1504
2018-07-04T04:31:36.063Z,1516
2018-07-04T04:32:36.794Z,1528
2018-07-04T04:33:37.554Z,1540
2018-07-04T04:34:38.178Z,1548
2018-07-04T04:35:38.860Z,1564
2018-07-04T04:36:39.542Z,1572
2018-07-04T04:37:40.273Z,1588
2018-07-04T04:38:40.954Z,1596
2018-07-04T04:39:41.637Z,1608
2018-07-04T04:40:42.320Z,1620
2018-07-04T04:41:43.003Z,1632
2018-07-04T04:42:43.686Z,1648
2018-07-04T04:43:44.371Z,1660
2018-07-04T04:44:45.097Z,1676
2018-07-04T04:45:45.828Z,1688
2018-07-04T04:46:46.510Z,1704
2018-07-04T04:47:47.193Z,1716
2018-07-04T04:48:47.924Z,1728
2018-07-04T04:49:48.657Z,1744
2018-07-04T04:50:49.339Z,1760
2018-07-04T04:51:50.022Z,1772
2018-07-04T04:52:50.706Z,1784
2018-07-04T04:53:51.388Z,1792
2018-07-04T04:54:52.147Z,1804
2018-07-04T04:55:52.804Z,1820
2018-07-04T04:56:53.520Z,1836
2018-07-04T04:57:54.167Z,1844
2018-07-04T04:58:54.900Z,1860
2018-07-04T04:59:55.581Z,1876
2018-07-04T05:00:56.264Z,1892
2018-07-04T05:01:56.949Z,1908
2018-07-04T05:02:57.681Z,1920
2018-07-04T05:03:58.366Z,1940
2018-07-04T05:04:59.099Z,1960
2018-07-04T05:05:59.783Z,1976
2018-07-04T05:07:00.466Z,1992
2018-07-04T05:08:01.148Z,2012
2018-07-04T05:09:01.880Z,2036
2018-07-04T05:10:02.561Z,2048
2018-07-04T05:11:03.247Z,2072
2018-07-04T05:12:03.926Z,2092
2018-07-04T05:13:04.611Z,2116
2018-07-04T05:14:05.342Z,2136
2018-07-04T05:15:06.027Z,2152
2018-07-04T05:16:06.760Z,2176
2018-07-04T05:17:07.442Z,2196
2018-07-04T05:18:08.126Z,2220
2018-07-04T05:19:08.856Z,2244
2018-07-04T05:20:09.540Z,2268
2018-07-04T05:21:10.270Z,2292
2018-07-04T05:22:10.951Z,2320
2018-07-04T05:23:11.633Z,2344
2018-07-04T05:24:12.318Z,2368
2018-07-04T05:25:13.000Z,2396
2018-07-04T05:26:13.683Z,2420
2018-07-04T05:27:14.367Z,2448
2018-07-04T05:28:15.073Z,2472
2018-07-04T05:29:15.732Z,2500
2018-07-04T05:30:16.416Z,2532
2018-07-04T05:31:17.149Z,2556
2018-07-04T05:32:17.833Z,2588
2018-07-04T05:33:18.518Z,2620
2018-07-04T05:34:19.251Z,2648
2018-07-04T05:35:19.937Z,2672
2018-07-04T05:36:20.719Z,2704
2018-07-04T05:37:21.401Z,2732
2018-07-04T05:38:22.084Z,2756
2018-07-04T05:39:22.818Z,2784
2018-07-04T05:40:23.553Z,2804
2018-07-04T05:41:24.235Z,2832
2018-07-04T05:42:24.918Z,2856
2018-07-04T05:43:25.607Z,2892
2018-07-04T05:44:26.340Z,2924
2018-07-04T05:45:27.017Z,2968
2018-07-04T05:46:27.749Z,3004
2018-07-04T05:47:28.482Z,3032
2018-07-04T05:48:29.167Z,3068
2018-07-04T05:49:29.851Z,3112
2018-07-04T05:50:30.585Z,3152
2018-07-04T05:51:31.271Z,3192
2018-07-04T05:52:31.954Z,3232
2018-07-04T05:53:32.687Z,3272
2018-07-04T05:54:33.371Z,3316
2018-07-04T05:55:34.105Z,3360
2018-07-04T05:56:34.789Z,3388
2018-07-04T05:57:35.523Z,3428
2018-07-04T05:58:36.206Z,3464
2018-07-04T05:59:36.890Z,3516
2018-07-04T06:00:37.575Z,3572
2018-07-04T06:01:38.260Z,3620
2018-07-04T06:02:39.056Z,3676
2018-07-04T06:03:39.679Z,3744
2018-07-04T06:04:40.415Z,3824
2018-07-04T06:05:41.100Z,3912
2018-07-04T06:06:41.785Z,4024
2018-07-04T06:07:42.470Z,4152
2018-07-04T06:08:43.156Z,4308
2018-07-04T06:09:43.894Z,4500
2018-07-04T06:10:44.631Z,4760
2018-07-04T06:11:45.309Z,5172
2018-07-04T06:12:45.996Z,9816
2018-07-04T06:13:46.683Z,47616
2018-07-04T06:14:47.419Z,83968
2018-07-04T06:15:48.105Z,92928
2018-07-04T06:16:48.843Z,90848
2018-07-04T06:17:49.578Z,77440
2018-07-04T06:18:50.266Z,67072
2018-07-04T06:19:50.952Z,64832
2018-07-04T06:20:51.691Z,68704
2018-07-04T06:21:52.378Z,79552
2018-07-04T06:22:53.067Z,91456
2018-07-04T06:23:53.755Z,91968
2018-07-04T06:24:54.543Z,82816
2018-07-04T06:25:55.233Z,81536
2018-07-04T06:26:55.922Z,82240
2018-07-04T06:27:56.614Z,87840
2018-07-04T06:28:57.304Z,87136
2018-07-04T06:29:58.045Z,88736
2018-07-04T06:30:58.736Z,89952
2018-07-04T06:31:59.432Z,85728
2018-07-04T06:33:00.120Z,88704
2018-07-04T06:34:00.864Z,89600
2018-07-04T06:35:01.557Z,86400
2018-07-04T06:36:02.252Z,85984
2018-07-04T06:37:02.993Z,84448
2018-07-04T06:38:03.735Z,89280
2018-07-04T06:39:04.455Z,92672
2018-07-04T06:40:05.175Z,89728
2018-07-04T06:41:05.869Z,89088
2018-07-04T06:42:06.564Z,93568
2018-07-04T06:43:07.260Z,89120
2018-07-04T06:44:08.005Z,83520
2018-07-04T06:45:08.700Z,86720
2018-07-04T06:46:09.396Z,83936
2018-07-04T06:47:10.093Z,74304
2018-07-04T06:48:10.791Z,80000
2018-07-04T06:49:11.702Z,83840
2018-07-04T06:50:12.375Z,78816
2018-07-04T06:51:13.071Z,74464
2018-07-04T06:52:13.769Z,71616
2018-07-04T06:53:14.465Z,53472
2018-07-04T06:54:15.260Z,47680
2018-07-04T06:55:15.909Z,56608
2018-07-04T06:56:16.608Z,61696
2018-07-04T06:57:17.302Z,51712
2018-07-04T06:58:18.000Z,48768
2018-07-04T06:59:18.746Z,53888
2018-07-04T07:00:19.443Z,48704
2018-07-04T07:01:20.141Z,46880
2018-07-04T07:02:20.840Z,52544
2018-07-04T07:03:21.533Z,47936
2018-07-04T07:04:22.281Z,49088
2018-07-04T07:05:22.978Z,47584
2018-07-04T07:06:23.675Z,56448
2018-07-04T07:07:24.372Z,64992
2018-07-04T07:08:25.144Z,66752
2018-07-04T07:09:25.813Z,62720
2018-07-04T07:10:26.510Z,68896
2018-07-04T07:11:27.207Z,69984
2018-07-04T07:12:27.905Z,70368
2018-07-04T07:13:28.653Z,74016
2018-07-04T07:14:29.396Z,73696
2018-07-04T07:15:30.046Z,76256
2018-07-04T07:16:30.796Z,82976
2018-07-04T07:17:31.485Z,80448
2018-07-04T07:18:32.184Z,77632
2018-07-04T07:19:32.930Z,81824
2018-07-04T07:20:33.628Z,82528
2018-07-04T07:21:34.323Z,81376
2018-07-04T07:22:35.069Z,80224
2018-07-04T07:23:35.816Z,81120
2018-07-04T07:24:36.513Z,77536
2018-07-04T07:25:37.210Z,69376
2018-07-04T07:26:37.905Z,69024
2018-07-04T07:27:38.652Z,55488
2018-07-04T07:28:39.297Z,48000
2018-07-04T07:29:39.992Z,50016
2018-07-04T07:30:40.689Z,54816
2018-07-04T07:31:41.388Z,57760
2018-07-04T07:32:42.137Z,57056
2018-07-04T07:33:42.829Z,56192
2018-07-04T07:34:43.525Z,58752
2018-07-04T07:35:44.221Z,57376
2018-07-04T07:36:45.006Z,54016
2018-07-04T07:37:45.663Z,50848
2018-07-04T07:38:46.359Z,50272
2018-07-04T07:39:47.057Z,53344
2018-07-04T07:40:47.803Z,51936
2018-07-04T07:41:48.548Z,49408
2018-07-04T07:42:49.245Z,47616
2018-07-04T07:43:49.939Z,43872
2018-07-04T07:44:50.633Z,44672
2018-07-04T07:45:51.378Z,43360
2018-07-04T07:46:52.076Z,44928
2018-07-04T07:47:52.771Z,43776
2018-07-04T07:48:53.468Z,41984
2018-07-04T07:49:54.166Z,44992
2018-07-04T07:50:54.867Z,48704
2018-07-04T07:51:55.611Z,47456
2018-07-04T07:52:56.309Z,42656
2018-07-04T07:53:57.003Z,39648
2018-07-04T07:54:57.702Z,48608
2018-07-04T07:55:58.397Z,46016
2018-07-04T07:56:59.094Z,48064
2018-07-04T07:57:59.841Z,52352
2018-07-04T07:59:00.539Z,52864
2018-07-04T08:00:01.283Z,52672
2018-07-04T08:01:01.978Z,57344
2018-07-04T08:02:02.723Z,57088
2018-07-04T08:03:03.418Z,55040
2018-07-04T08:04:04.112Z,53664
2018-07-04T08:05:04.808Z,57152
2018-07-04T08:06:05.503Z,59840
2018-07-04T08:07:06.249Z,59392
2018-07-04T08:08:06.943Z,56320
2018-07-04T08:09:07.642Z,61248
2018-07-04T08:10:08.384Z,67296
2018-07-04T08:11:09.130Z,61856
2018-07-04T08:12:09.826Z,59616
2018-07-04T08:13:10.521Z,60288
2018-07-04T08:14:11.265Z,60832
2018-07-04T08:15:11.961Z,49312
2018-07-04T08:16:12.657Z,26176
2018-07-04T08:17:13.352Z,13804
2018-07-04T08:18:14.047Z,12032
2018-07-04T08:19:14.744Z,11360
2018-07-04T08:20:15.488Z,10792
2018-07-04T08:21:16.185Z,10116
2018-07-04T08:22:16.880Z,9660
2018-07-04T08:23:17.624Z,9368
2018-07-04T08:24:18.319Z,9068
2018-07-04T08:25:19.012Z,8792
2018-07-04T08:26:19.719Z,8440
2018-07-04T08:27:20.398Z,8304
2018-07-04T08:28:21.145Z,8208
2018-07-04T08:29:21.885Z,7940
2018-07-04T08:30:22.579Z,7820
2018-07-04T08:31:23.275Z,7692
2018-07-04T08:32:23.972Z,7656
2018-07-04T08:33:24.767Z,7532
2018-07-04T08:34:25.460Z,7528
2018-07-04T08:35:26.151Z,7452
2018-07-04T08:36:26.846Z,7396
2018-07-04T08:37:27.540Z,7344
2018-07-04T08:38:28.284Z,7252
2018-07-04T08:39:28.979Z,7208
2018-07-04T08:40:29.671Z,7268
2018-07-04T08:41:30.417Z,7304
2018-07-04T08:42:31.109Z,7304
2018-07-04T08:43:31.902Z,7264
2018-07-04T08:44:32.596Z,7264
2018-07-04T08:45:33.338Z,7284
2018-07-04T08:46:34.031Z,7232
2018-07-04T08:47:34.775Z,7228
2018-07-04T08:48:35.517Z,7292
2018-07-04T08:49:36.210Z,7284
2018-07-04T08:50:36.983Z,7160
2018-07-04T08:51:37.599Z,7060
2018-07-04T08:52:38.331Z,7040
2018-07-04T08:53:39.037Z,6928
2018-07-04T08:54:39.731Z,7076
2018-07-04T08:55:40.424Z,7104
2018-07-04T08:56:41.118Z,7012
2018-07-04T08:57:41.811Z,6924
2018-07-04T08:58:42.602Z,6856
2018-07-04T08:59:43.294Z,6884
2018-07-04T09:00:43.990Z,6808
2018-07-04T09:01:44.684Z,6704
2018-07-04T09:02:45.429Z,6624
2018-07-04T09:03:46.170Z,6584
2018-07-04T09:04:46.866Z,6572
2018-07-04T09:05:47.560Z,6436
2018-07-04T09:06:48.304Z,6368
2018-07-04T09:07:48.999Z,6392
2018-07-04T09:08:49.691Z,6360
2018-07-04T09:09:50.384Z,6328
2018-07-04T09:10:51.078Z,6660
2018-07-04T09:11:51.854Z,6328
2018-07-04T09:12:52.517Z,6244
2018-07-04T09:13:53.223Z,6224
2018-07-04T09:14:53.906Z,6236
2018-07-04T09:15:54.600Z,6212
2018-07-04T09:16:55.344Z,6156
2018-07-04T09:17:56.088Z,6128
2018-07-04T09:18:56.833Z,6088
2018-07-04T09:19:57.528Z,6076
2018-07-04T09:20:58.222Z,6092
2018-07-04T09:21:58.919Z,6072
2018-07-04T09:22:59.626Z,6084
2018-07-04T09:24:00.354Z,6044
2018-07-04T09:25:01.051Z,6032
2018-07-04T09:26:01.740Z,6052
2018-07-04T09:27:02.436Z,6040
2018-07-04T09:28:03.227Z,6040
2018-07-04T09:29:03.922Z,5980
2018-07-04T09:30:04.616Z,5976
2018-07-04T09:31:05.311Z,5972
2018-07-04T09:32:06.006Z,5972
2018-07-04T09:33:06.750Z,5932
2018-07-04T09:34:07.443Z,5896
2018-07-04T09:35:08.135Z,5860
2018-07-04T09:36:08.830Z,5820
2018-07-04T09:37:09.525Z,5792
2018-07-04T09:38:10.270Z,5752
2018-07-04T09:39:10.965Z,5708
2018-07-04T09:40:11.660Z,5676
2018-07-04T09:41:12.354Z,5640
2018-07-04T09:42:13.098Z,5620
2018-07-04T09:43:13.844Z,5592
2018-07-04T09:44:14.588Z,5576
2018-07-04T09:45:15.278Z,5516
2018-07-04T09:46:15.971Z,5508
2018-07-04T09:47:16.668Z,5476
2018-07-04T09:48:17.357Z,5440
2018-07-04T09:49:18.052Z,5420
2018-07-04T09:50:18.844Z,5388
2018-07-04T09:51:19.539Z,5348
2018-07-04T09:52:20.232Z,5332
2018-07-04T09:53:20.978Z,5300
2018-07-04T09:54:21.671Z,5268
2018-07-04T09:55:22.366Z,5252
2018-07-04T09:56:23.060Z,5224
2018-07-04T09:57:23.753Z,5168
2018-07-04T09:58:24.496Z,5104
2018-07-04T09:59:25.191Z,5124
2018-07-04T10:00:25.885Z,5092
2018-07-04T10:01:26.628Z,5072
2018-07-04T10:02:27.322Z,5040
2018-07-04T10:03:28.016Z,5052
2018-07-04T10:04:28.711Z,5116
2018-07-04T10:05:29.406Z,5132
2018-07-04T10:06:30.149Z,5140
2018-07-04T10:07:30.844Z,5148
2018-07-04T10:08:31.538Z,5152
2018-07-04T10:09:32.233Z,5160
2018-07-04T10:10:32.928Z,5172
2018-07-04T10:11:33.672Z,5180
2018-07-04T10:12:34.377Z,5188
2018-07-04T10:13:35.062Z,5184
2018-07-04T10:14:35.757Z,5192
2018-07-04T10:15:36.454Z,5192
2018-07-04T10:16:37.198Z,5244
2018-07-04T10:17:37.895Z,5300
2018-07-04T10:18:38.590Z,5128
2018-07-04T10:19:39.284Z,5368
2018-07-04T10:20:40.029Z,5416
2018-07-04T10:21:40.771Z,5472
2018-07-04T10:22:41.467Z,5224
2018-07-04T10:23:42.210Z,5336
2018-07-04T10:24:43.003Z,5324
2018-07-04T10:25:43.600Z,5340
2018-07-04T10:26:44.341Z,5584
2018-07-04T10:27:45.086Z,5564
2018-07-04T10:28:45.830Z,5600
2018-07-04T10:29:46.527Z,6024
2018-07-04T10:30:47.274Z,6204
2018-07-04T10:31:47.966Z,6684
2018-07-04T10:32:48.662Z,7448
2018-07-04T10:33:49.358Z,8172
2018-07-04T10:34:50.053Z,8660
2018-07-04T10:35:50.797Z,9088
2018-07-04T10:36:51.492Z,9368
2018-07-04T10:37:52.238Z,9476
2018-07-04T10:38:52.984Z,9656
2018-07-04T10:39:53.678Z,9560
2018-07-04T10:40:54.374Z,9532
2018-07-04T10:41:55.070Z,9288
2018-07-04T10:42:55.765Z,9092
2018-07-04T10:43:56.510Z,8988
2018-07-04T10:44:57.206Z,8860
2018-07-04T10:45:57.896Z,8756
2018-07-04T10:46:58.590Z,8548
2018-07-04T10:47:59.284Z,8336
2018-07-04T10:49:00.031Z,8132
2018-07-04T10:50:00.724Z,7916
2018-07-04T10:51:01.439Z,6984
2018-07-04T10:52:02.114Z,7304
2018-07-04T10:53:02.809Z,7100
2018-07-04T10:54:03.553Z,6864
2018-07-04T10:55:04.250Z,6444
2018-07-04T10:56:04.945Z,5632
2018-07-04T10:57:05.689Z,5400
2018-07-04T10:58:06.385Z,5140
2018-07-04T10:59:07.129Z,5024
2018-07-04T11:00:07.876Z,5196
2018-07-04T11:01:08.567Z,5044
2018-07-04T11:02:09.260Z,5148
2018-07-04T11:03:10.005Z,5352
2018-07-04T11:04:10.746Z,5648
2018-07-04T11:05:11.441Z,5888
2018-07-04T11:06:12.133Z,6092
2018-07-04T11:07:12.879Z,6268
2018-07-04T11:08:13.606Z,6488
2018-07-04T11:09:14.266Z,6720
2018-07-04T11:10:15.061Z,7040
2018-07-04T11:11:15.765Z,7280
2018-07-04T11:12:16.497Z,7736
2018-07-04T11:13:17.241Z,7664
2018-07-04T11:14:17.935Z,8036
2018-07-04T11:15:18.676Z,8464
2018-07-04T11:16:19.369Z,9852
2018-07-04T11:17:20.061Z,9884
2018-07-04T11:18:20.755Z,10324
2018-07-04T11:19:21.451Z,10404
2018-07-04T11:20:22.146Z,10576
2018-07-04T11:21:22.842Z,10720
2018-07-04T11:22:23.590Z,10788
2018-07-04T11:23:24.283Z,10828
2018-07-04T11:24:24.992Z,10876
2018-07-04T11:25:25.673Z,9744
2018-07-04T11:26:26.417Z,9728
2018-07-04T11:27:27.112Z,9684
2018-07-04T11:28:27.840Z,9712
2018-07-04T11:29:28.549Z,9840
2018-07-04T11:30:29.244Z,10180
2018-07-04T11:31:29.943Z,10328
2018-07-04T11:32:30.636Z,10648
2018-07-04T11:33:31.383Z,10240
2018-07-04T11:34:32.077Z,10312
2018-07-04T11:35:32.773Z,9588
2018-07-04T11:36:33.517Z,9516
2018-07-04T11:37:34.215Z,8588
2018-07-04T11:38:34.955Z,8680
2018-07-04T11:39:35.648Z,8408
2018-07-04T11:40:36.341Z,8192
2018-07-04T11:41:37.087Z,7732
2018-07-04T11:42:37.779Z,7788
2018-07-04T11:43:38.474Z,7668
2018-07-04T11:44:39.168Z,7544
2018-07-04T11:45:39.863Z,7384
2018-07-04T11:46:40.607Z,7180
2018-07-04T11:47:41.302Z,6976
2018-07-04T11:48:41.996Z,6808
2018-07-04T11:49:42.690Z,6684
2018-07-04T11:50:43.382Z,6512
2018-07-04T11:51:44.075Z,6416
2018-07-04T11:52:44.820Z,6472
2018-07-04T11:53:45.515Z,6400
2018-07-04T11:54:46.255Z,6284
2018-07-04T11:55:46.948Z,6144
2018-07-04T11:56:47.650Z,6052
2018-07-04T11:57:48.387Z,6040
2018-07-04T11:58:49.081Z,6120
2018-07-04T11:59:49.772Z,6108
2018-07-04T12:00:50.466Z,6256
2018-07-04T12:01:51.187Z,6240
2018-07-04T12:02:51.946Z,6164
2018-07-04T12:03:52.640Z,6052
2018-07-04T12:04:53.380Z,5932
2018-07-04T12:05:54.075Z,5748
2018-07-04T12:06:54.767Z,5528
2018-07-04T12:07:55.509Z,5424
2018-07-04T12:08:56.202Z,5336
2018-07-04T12:09:56.944Z,5392
2018-07-04T12:10:57.651Z,4616
2018-07-04T12:11:58.329Z,4700
2018-07-04T12:12:59.071Z,5412
2018-07-04T12:13:59.764Z,5388
2018-07-04T12:15:00.507Z,5328
2018-07-04T12:16:01.200Z,5224
2018-07-04T12:17:01.952Z,5196
2018-07-04T12:18:02.646Z,5128
2018-07-04T12:19:03.338Z,5088
2018-07-04T12:20:04.084Z,5044
2018-07-04T12:21:04.773Z,4896
2018-07-04T12:22:05.465Z,4720
2018-07-04T12:23:06.158Z,4816
2018-07-04T12:24:06.852Z,4848
2018-07-04T12:25:07.595Z,4944
2018-07-04T12:26:08.288Z,5012
2018-07-04T12:27:09.028Z,5076
2018-07-04T12:28:09.721Z,5004
2018-07-04T12:29:10.414Z,5020
2018-07-04T12:30:11.108Z,5088
2018-07-04T12:31:11.806Z,5068
2018-07-04T12:32:12.544Z,5052
2018-07-04T12:33:13.283Z,5132
2018-07-04T12:34:13.976Z,5160
2018-07-04T12:35:14.671Z,5212
2018-07-04T12:36:15.360Z,5328
2018-07-04T12:37:16.053Z,5372
2018-07-04T12:38:16.800Z,5240
2018-07-04T12:39:17.490Z,5028
2018-07-04T12:40:18.177Z,4920
2018-07-04T12:41:18.871Z,4700
2018-07-04T12:42:19.562Z,4544
2018-07-04T12:43:20.294Z,4176
2018-07-04T12:44:20.950Z,4336
2018-07-04T12:45:21.644Z,3924
2018-07-04T12:46:22.342Z,4348
2018-07-04T12:47:23.165Z,4752
2018-07-04T12:48:23.773Z,4916
2018-07-04T12:49:24.461Z,5108
2018-07-04T12:50:25.155Z,5088
2018-07-04T12:51:25.864Z,5156
2018-07-04T12:52:26.540Z,5232
2018-07-04T12:53:27.235Z,5308
2018-07-04T12:54:27.983Z,5392
2018-07-04T12:55:28.621Z,5436
2018-07-04T12:56:29.367Z,5520
2018-07-04T12:57:30.059Z,5676
2018-07-04T12:58:30.746Z,5812
2018-07-04T12:59:31.543Z,5964
2018-07-04T13:00:32.181Z,5944
2018-07-04T13:01:32.874Z,6152
2018-07-04T13:02:33.564Z,6372
2018-07-04T13:03:34.262Z,6448
2018-07-04T13:04:35.002Z,6272
2018-07-04T13:05:35.694Z,6332
2018-07-04T13:06:36.496Z,6160
2018-07-04T13:07:37.130Z,6152
2018-07-04T13:08:37.823Z,6432
2018-07-04T13:09:38.519Z,6296
2018-07-04T13:10:39.258Z,6324
2018-07-04T13:11:40.050Z,6548
2018-07-04T13:12:40.739Z,6844
2018-07-04T13:13:41.431Z,7048
2018-07-04T13:14:42.125Z,6508
2018-07-04T13:15:42.916Z,6036
2018-07-04T13:16:43.608Z,6868
2018-07-04T13:17:44.351Z,6312
2018-07-04T13:18:45.043Z,6808
2018-07-04T13:19:45.737Z,6868
2018-07-04T13:20:46.474Z,6856
2018-07-04T13:21:47.127Z,6860
2018-07-04T13:22:47.867Z,6904
2018-07-04T13:23:48.563Z,6860
2018-07-04T13:24:49.255Z,6808
2018-07-04T13:25:49.994Z,6768
2018-07-04T13:26:50.639Z,6784
2018-07-04T13:27:51.382Z,6812
2018-07-04T13:28:52.075Z,6832
2018-07-04T13:29:52.818Z,6908
2018-07-04T13:30:53.511Z,6964
2018-07-04T13:31:54.248Z,6924
2018-07-04T13:32:54.899Z,7144
2018-07-04T13:33:55.589Z,7276
2018-07-04T13:34:56.331Z,7384
2018-07-04T13:35:57.023Z,7436
2018-07-04T13:36:57.715Z,7468
2018-07-04T13:37:58.457Z,7412
2018-07-04T13:38:59.150Z,7396
2018-07-04T13:39:59.896Z,7416
2018-07-04T13:41:00.584Z,7480
2018-07-04T13:42:01.280Z,7532
2018-07-04T13:43:02.011Z,7528